Time;durP1;ratioP1;P1;durP2;ratioP2;P2;SDS_P1;SDS_P2;PMS_P1;PMS_P2;Temp;Humidity;BMP_temperature;BMP_pressure;BME280_temperature;BME280_humidity;BME280_pressure;Samples;Min_cycle;Max_cycle;Signal;HPM_P1;HPM_P2
2023/08/03 00:01:56;;;;;;;2.30;1.25;;;;;;;35.87;18.50;100846.94;4949200;28;20043;-79
2023/08/03 00:04:24;;;;;;;2.58;1.15;;;;;;;35.85;18.64;100844.38;4947770;28;20107;-79
2023/08/03 00:06:53;;;;;;;3.13;1.45;;;;;;;35.83;18.59;100840.09;4952256;28;20505;-77
2023/08/03 00:09:24;;;;;;;4.70;1.20;;;;;;;35.83;19.04;100840.09;4945203;28;20040;-79
2023/08/03 00:11:53;;;;;;;4.00;1.30;;;;;;;35.84;18.26;100841.78;4950075;28;20047;-79
2023/08/03 00:14:22;;;;;;;3.83;1.08;;;;;;;35.82;17.60;100836.50;4943846;28;20075;-79
2023/08/03 00:16:50;;;;;;;2.25;1.20;;;;;;;35.75;18.03;100829.03;4953840;28;20047;-78
2023/08/03 00:19:24;;;;;;;3.45;1.10;;;;;;;35.65;18.67;100832.41;4952403;28;20406;-79
2023/08/03 00:21:53;;;;;;;2.58;1.00;;;;;;;35.58;18.72;100831.13;4943841;28;20047;-79
2023/08/03 00:24:24;;;;;;;3.88;1.00;;;;;;;35.49;17.76;100821.06;4947961;28;20062;-77
2023/08/03 00:26:53;;;;;;;3.38;1.20;;;;;;;35.45;18.43;100820.41;4950388;28;20055;-80
2023/08/03 00:29:26;;;;;;;2.75;1.35;;;;;;;35.48;17.71;100819.31;4952558;28;20098;-77
2023/08/03 00:31:55;;;;;;;1.55;1.38;;;;;;;35.55;18.27;100812.53;4946484;28;20146;-80
2023/08/03 00:34:24;;;;;;;1.65;1.27;;;;;;;35.61;18.33;100820.16;4944449;28;20063;-81
2023/08/03 00:36:52;;;;;;;1.48;1.05;;;;;;;35.65;17.58;100818.09;4942142;28;20142;-82
2023/08/03 00:39:23;;;;;;;1.50;1.08;;;;;;;35.70;17.42;100815.91;4948844;28;20051;-80
2023/08/03 00:41:53;;;;;;;4.50;0.90;;;;;;;35.73;18.63;100818.38;4948358;28;20075;-81
2023/08/03 00:44:22;;;;;;;2.22;0.90;;;;;;;35.62;17.25;100811.13;4946166;28;20043;-77
2023/08/03 00:46:51;;;;;;;1.90;1.10;;;;;;;35.54;16.74;100813.47;4945419;28;20051;-79
2023/08/03 00:49:19;;;;;;;3.95;1.00;;;;;;;35.50;16.71;100812.00;4947486;28;20047;-77
2023/08/03 00:51:48;;;;;;;2.67;0.95;;;;;;;35.43;17.09;100806.19;4945120;28;20054;-83
2023/08/03 00:54:17;;;;;;;1.77;1.10;;;;;;;35.34;16.54;100812.28;4949457;28;20143;-77
2023/08/03 00:56:45;;;;;;;1.70;0.93;;;;;;;35.19;16.22;100808.03;4951103;28;20043;-77
2023/08/03 00:59:16;;;;;;;2.90;1.08;;;;;;;35.04;16.10;100799.22;4948167;28;20048;-79
2023/08/03 01:01:45;;;;;;;3.15;1.02;;;;;;;34.94;17.11;100808.94;4944654;28;20406;-78
2023/08/03 01:04:17;;;;;;;2.47;0.90;;;;;;;34.86;16.23;100806.78;4942811;28;20043;-77
2023/08/03 01:06:44;;;;;;;;;;;;;;;34.79;16.58;100802.81;4950302;28;20081;-82
2023/08/03 01:09:13;;;;;;;3.45;0.93;;;;;;;34.65;16.85;100806.50;4948736;28;19927;-80
2023/08/03 01:11:43;;;;;;;3.38;1.00;;;;;;;34.57;17.67;100803.47;4953540;28;20098;-79
2023/08/03 01:14:13;;;;;;;2.60;0.98;;;;;;;34.55;17.58;100808.09;4947046;28;20056;-80
2023/08/03 01:16:43;;;;;;;1.52;0.98;;;;;;;34.47;18.69;100805.06;4950187;28;20051;-79
2023/08/03 01:19:14;;;;;;;1.25;1.10;;;;;;;34.36;18.58;100806.69;4948560;28;20526;-77
2023/08/03 01:21:46;;;;;;;5.30;1.00;;;;;;;34.18;19.00;100800.78;4951048;28;20059;-81
2023/08/03 01:24:17;;;;;;;4.10;0.80;;;;;;;33.98;18.74;100802.09;4951452;28;20057;-78
2023/08/03 01:26:46;;;;;;;0.85;0.70;;;;;;;33.88;19.18;100811.75;4949233;28;20079;-77
2023/08/03 01:29:15;;;;;;;2.40;0.85;;;;;;;33.78;18.99;100813.31;4949254;28;20679;-79
2023/08/03 01:31:45;;;;;;;2.70;0.70;;;;;;;33.64;19.77;100806.19;4950423;28;20047;-81
2023/08/03 01:34:14;;;;;;;2.22;0.80;;;;;;;33.52;19.31;100807.84;4959673;28;20059;-82
2023/08/03 01:36:45;;;;;;;1.20;0.80;;;;;;;33.40;19.85;100805.97;4956708;28;20051;-78
2023/08/03 01:39:14;;;;;;;1.95;0.85;;;;;;;33.32;21.02;100814.50;4954590;28;20055;-83
2023/08/03 01:41:45;;;;;;;1.90;0.70;;;;;;;33.22;20.04;100818.75;4951814;28;20055;-83
2023/08/03 01:44:31;;;;;;;3.28;0.73;;;;;;;32.92;20.98;100803.66;4958212;28;20047;-79
2023/08/03 01:47:01;;;;;;;1.33;0.80;;;;;;;32.80;20.89;100814.28;4949529;28;20074;-81
2023/08/03 01:49:31;;;;;;;1.85;0.77;;;;;;;32.67;21.37;100815.06;4948137;28;20043;-77
2023/08/03 01:51:59;;;;;;;1.33;0.63;;;;;;;32.57;21.50;100818.38;4945749;28;20075;-78
2023/08/03 01:54:31;;;;;;;0.80;0.60;;;;;;;32.52;20.82;100819.53;4948698;28;20074;-79
2023/08/03 01:57:00;;;;;;;;;;;;;;;32.38;21.34;100818.63;4945363;28;20916;-79
2023/08/03 01:59:29;;;;;;;1.20;0.70;;;;;;;32.23;21.98;100823.97;4952229;28;20448;-82
2023/08/03 02:01:57;;;;;;;2.22;0.50;;;;;;;32.08;21.85;100820.38;4945809;28;20059;-79
2023/08/03 02:04:28;;;;;;;2.25;0.70;;;;;;;32.00;21.98;100819.09;4954769;28;20055;-81
2023/08/03 02:06:59;;;;;;;5.07;0.57;;;;;;;31.92;21.83;100828.41;4947447;28;20055;-80
2023/08/03 02:09:27;;;;;;;1.15;0.75;;;;;;;31.89;22.29;100825.94;4945534;28;20051;-82
2023/08/03 02:11:56;;;;;;;1.75;0.75;;;;;;;31.84;21.67;100825.34;4946859;28;20083;-79
2023/08/03 02:14:36;;;;;;;4.35;0.73;;;;;;;31.77;21.71;100839.16;4949421;28;20489;-79
2023/08/03 02:17:04;;;;;;;2.47;0.65;;;;;;;31.74;22.07;100845.53;4952485;28;20601;-81
2023/08/03 02:19:35;;;;;;;2.78;0.77;;;;;;;31.67;21.65;100838.81;4949860;28;20047;-80
2023/08/03 02:22:05;;;;;;;0.77;0.63;;;;;;;31.50;21.36;100843.34;4950522;28;20065;-78
2023/08/03 02:24:36;;;;;;;3.13;0.75;;;;;;;31.39;21.92;100845.72;4952173;28;20047;-80
2023/08/03 02:27:05;;;;;;;1.02;0.80;;;;;;;31.33;21.47;100846.06;4952439;28;21373;-80
2023/08/03 02:29:35;;;;;;;1.00;0.50;;;;;;;31.27;22.43;100852.63;4952282;28;20057;-81
2023/08/03 02:32:04;;;;;;;0.93;0.60;;;;;;;31.23;21.92;100850.19;4952546;28;20058;-76
2023/08/03 02:34:32;;;;;;;1.17;0.50;;;;;;;31.14;21.38;100850.72;4948263;28;20043;-77
2023/08/03 02:37:01;;;;;;;1.05;0.60;;;;;;;31.08;21.75;100852.78;4955192;28;20314;-76
2023/08/03 02:39:29;;;;;;;2.30;0.77;;;;;;;31.02;21.34;100857.59;4950372;28;20047;-77
2023/08/03 02:41:58;;;;;;;1.55;0.77;;;;;;;30.95;21.11;100862.41;4950226;28;20130;-77
2023/08/03 02:44:27;;;;;;;1.23;0.70;;;;;;;30.91;22.00;100860.84;4949275;28;20134;-78
2023/08/03 02:46:57;;;;;;;2.85;0.70;;;;;;;30.82;22.04;100864.84;4950884;28;20055;-81
2023/08/03 02:49:26;;;;;;;1.50;0.70;;;;;;;30.70;21.94;100868.16;4952626;28;20055;-80
2023/08/03 02:51:55;;;;;;;2.00;0.75;;;;;;;30.56;22.31;100874.22;4947504;28;20046;-77
2023/08/03 02:54:23;;;;;;;1.00;0.70;;;;;;;30.45;22.13;100873.94;4948221;28;20047;-77
2023/08/03 02:56:52;;;;;;;1.85;0.60;;;;;;;30.38;22.17;100877.88;4951658;28;20066;-77
2023/08/03 02:59:21;;;;;;;0.90;0.63;;;;;;;30.31;22.54;100876.44;4950069;28;20043;-81
2023/08/03 03:01:49;;;;;;;0.90;0.65;;;;;;;30.16;22.73;100868.22;4949157;28;20047;-81
2023/08/03 03:04:19;;;;;;;2.13;0.60;;;;;;;30.16;22.58;100876.22;4950264;28;20112;-79
2023/08/03 03:06:48;;;;;;;1.15;0.70;;;;;;;30.05;22.61;100881.25;4949465;28;20051;-78
2023/08/03 03:09:16;;;;;;;1.27;0.60;;;;;;;29.88;22.91;100883.91;4949264;28;20055;-81
2023/08/03 03:11:45;;;;;;;0.70;0.50;;;;;;;29.76;23.05;100886.22;4948693;28;20055;-79
2023/08/03 03:14:14;;;;;;;0.85;0.50;;;;;;;29.64;23.65;100890.31;4948924;28;20115;-78
2023/08/03 03:16:42;;;;;;;1.38;0.65;;;;;;;29.56;25.42;100888.94;4948517;28;20059;-78
2023/08/03 03:19:11;;;;;;;1.05;0.70;;;;;;;29.46;23.86;100883.19;4951118;28;20163;-80
2023/08/03 03:21:41;;;;;;;1.60;0.77;;;;;;;29.37;23.43;100883.63;4952954;28;20047;-76
2023/08/03 03:24:12;;;;;;;0.68;0.50;;;;;;;29.28;23.30;100887.59;4954407;28;20051;-78
2023/08/03 03:26:40;;;;;;;2.17;0.70;;;;;;;29.20;23.42;100893.25;4953324;28;20109;-81
2023/08/03 03:29:09;;;;;;;0.60;0.40;;;;;;;29.12;23.58;100891.91;4953065;28;20051;-77
2023/08/03 03:31:37;;;;;;;1.90;0.55;;;;;;;29.02;24.15;100892.28;4952511;28;20774;-80
2023/08/03 03:34:06;;;;;;;1.23;0.50;;;;;;;28.94;24.50;100896.22;4953283;28;20105;-77
2023/08/03 03:36:35;;;;;;;0.77;0.47;;;;;;;28.83;24.35;100894.03;4952160;28;20102;-78
2023/08/03 03:39:05;;;;;;;0.60;0.50;;;;;;;28.72;24.63;100897.16;4952688;28;20059;-78
2023/08/03 03:41:34;;;;;;;0.55;0.40;;;;;;;28.64;24.60;100907.31;4952209;28;20058;-78
2023/08/03 03:44:03;;;;;;;0.60;0.50;;;;;;;28.55;25.14;100905.91;4952325;28;20047;-79
2023/08/03 03:46:30;;;;;;;0.65;0.38;;;;;;;28.49;25.38;100910.63;4954140;28;20051;-76
2023/08/03 03:48:58;;;;;;;1.20;0.60;;;;;;;28.38;25.74;100916.34;4949689;28;20047;-78
2023/08/03 03:51:27;;;;;;;1.35;0.60;;;;;;;28.26;25.81;100924.88;4950430;28;20565;-77
2023/08/03 03:53:55;;;;;;;0.55;0.43;;;;;;;28.12;26.07;100923.63;4952403;28;20076;-78
2023/08/03 03:56:26;;;;;;;1.23;0.40;;;;;;;28.05;26.22;100932.78;4952875;28;20503;-78
2023/08/03 03:58:54;;;;;;;0.98;0.55;;;;;;;27.96;26.43;100933.16;4953560;28;20063;-80
2023/08/03 04:01:25;;;;;;;0.68;0.57;;;;;;;27.86;26.44;100938.00;4953252;28;20055;-78
2023/08/03 04:03:54;;;;;;;0.80;0.50;;;;;;;27.75;26.70;100941.03;4952338;28;20653;-77
2023/08/03 04:06:22;;;;;;;0.63;0.50;;;;;;;27.67;26.85;100943.13;4952364;28;20497;-78
2023/08/03 04:08:51;;;;;;;0.50;0.40;;;;;;;27.58;27.00;100951.47;4952157;28;20075;-80
2023/08/03 04:11:27;;;;;;;0.98;0.40;;;;;;;27.50;27.36;100954.41;4951113;28;20482;-77
2023/08/03 04:13:57;;;;;;;0.68;0.43;;;;;;;27.41;27.49;100948.56;4951705;28;20059;-77
2023/08/03 04:16:26;;;;;;;0.75;0.50;;;;;;;27.33;27.69;100956.84;4952389;28;20122;-77
2023/08/03 04:18:55;;;;;;;1.00;0.57;;;;;;;27.26;27.99;100957.97;4952293;28;20051;-79
2023/08/03 04:21:25;;;;;;;0.60;0.40;;;;;;;27.21;28.26;100960.78;4952256;28;20043;-76
2023/08/03 04:23:54;;;;;;;0.95;0.50;;;;;;;27.14;28.56;100964.56;4952582;28;20106;-77
2023/08/03 04:26:22;;;;;;;0.80;0.50;;;;;;;27.09;28.62;100971.84;4952603;28;20502;-78
2023/08/03 04:28:51;;;;;;;3.28;0.50;;;;;;;27.02;29.03;100970.31;4953265;28;20052;-79
2023/08/03 04:31:31;;;;;;;0.70;0.40;;;;;;;26.97;29.10;100972.28;4952302;28;20047;-79
2023/08/03 04:33:59;;;;;;;0.80;0.52;;;;;;;26.89;29.45;100978.72;4951594;28;20062;-77
2023/08/03 04:36:28;;;;;;;0.50;0.40;;;;;;;26.85;29.41;100982.41;4955406;28;20697;-77
2023/08/03 04:38:56;;;;;;;0.85;0.50;;;;;;;26.81;29.62;100979.91;4951732;28;20102;-77
2023/08/03 04:41:25;;;;;;;0.30;0.30;;;;;;;26.76;29.75;100988.03;4951194;28;20493;-76
2023/08/03 04:43:57;;;;;;;0.45;0.30;;;;;;;26.69;29.88;100989.16;4948776;28;20059;-79
2023/08/03 04:46:27;;;;;;;0.63;0.40;;;;;;;26.63;30.23;101005.28;4951785;28;20071;-78
2023/08/03 04:48:56;;;;;;;0.85;0.43;;;;;;;26.58;30.46;100996.63;4951662;28;20051;-78
2023/08/03 04:51:24;;;;;;;0.90;0.50;;;;;;;26.52;30.88;101003.81;4952327;28;20126;-76
2023/08/03 04:53:54;;;;;;;2.65;0.50;;;;;;;26.42;31.42;100999.75;4952112;28;20262;-82
2023/08/03 04:56:23;;;;;;;0.73;0.55;;;;;;;26.33;31.35;101008.84;4948902;28;20043;-79
2023/08/03 04:58:51;;;;;;;0.65;0.40;;;;;;;26.24;31.89;101002.97;4948511;28;20047;-78
2023/08/03 05:01:20;;;;;;;1.00;0.50;;;;;;;26.15;32.46;101000.63;4947384;28;20058;-79
2023/08/03 05:03:50;;;;;;;0.80;0.40;;;;;;;26.06;32.50;101015.03;4942088;28;20117;-80
2023/08/03 05:06:23;;;;;;;0.57;0.40;;;;;;;25.97;32.67;101016.16;4949689;28;20107;-80
2023/08/03 05:08:52;;;;;;;3.10;0.45;;;;;;;25.86;32.82;101013.84;4947343;28;20051;-80
2023/08/03 05:11:20;;;;;;;0.50;0.40;;;;;;;25.73;33.53;101023.06;4945566;28;20882;-79
2023/08/03 05:13:49;;;;;;;1.60;0.40;;;;;;;25.65;33.95;101019.75;4948110;28;20055;-79
2023/08/03 05:16:24;;;;;;;0.50;0.40;;;;;;;25.50;34.07;101023.72;4949387;28;20152;-78
2023/08/03 05:18:54;;;;;;;0.82;0.50;;;;;;;25.44;34.33;101031.84;4947566;28;20059;-78
2023/08/03 05:21:23;;;;;;;0.90;0.50;;;;;;;25.35;34.41;101042.69;4948123;28;20111;-80
2023/08/03 05:23:51;;;;;;;0.93;0.60;;;;;;;25.21;34.87;101030.69;4951079;28;20051;-81
2023/08/03 05:26:20;;;;;;;0.70;0.50;;;;;;;25.15;35.36;101051.13;4952184;28;20047;-79
2023/08/03 05:28:51;;;;;;;1.65;0.50;;;;;;;25.03;35.39;101041.72;4948627;28;20086;-78
2023/08/03 05:31:19;;;;;;;1.17;0.40;;;;;;;25.07;36.04;101059.28;4947702;28;20051;-77
2023/08/03 05:33:48;;;;;;;1.23;0.50;;;;;;;25.04;35.47;101057.56;4950129;28;20062;-77
2023/08/03 05:36:18;;;;;;;0.60;0.40;;;;;;;25.00;35.49;101060.34;4947269;28;20110;-79
2023/08/03 05:38:48;;;;;;;1.23;0.60;;;;;;;24.88;36.22;101054.44;4950447;28;20055;-77
2023/08/03 05:41:18;;;;;;;1.27;0.32;;;;;;;24.77;35.83;101056.50;4947066;28;20126;-80
2023/08/03 05:43:47;;;;;;;0.52;0.30;;;;;;;24.73;36.55;101065.41;4947408;28;20847;-79
2023/08/03 05:46:16;;;;;;;0.75;0.50;;;;;;;24.69;36.17;101061.09;4947874;28;20047;-80
2023/08/03 05:48:48;;;;;;;0.80;0.50;;;;;;;24.66;37.03;101066.47;4949474;28;20115;-83
2023/08/03 05:51:29;;;;;;;1.60;0.50;;;;;;;24.59;36.66;101065.72;4955000;28;20082;-86
2023/08/03 05:53:58;;;;;;;0.70;0.40;;;;;;;24.54;36.85;101064.97;4954347;28;20058;-85
2023/08/03 05:56:27;;;;;;;1.00;0.40;;;;;;;24.43;37.14;101059.03;4954876;29;20055;-85
2023/08/03 05:58:55;;;;;;;0.85;0.50;;;;;;;24.36;37.92;101066.25;4953054;28;20055;-85
2023/08/03 06:01:25;;;;;;;0.68;0.50;;;;;;;24.27;38.78;101066.44;4948330;28;20051;-86
2023/08/03 06:03:54;;;;;;;0.50;0.40;;;;;;;24.17;38.31;101059.63;4954789;28;20047;-83
2023/08/03 06:06:25;;;;;;;1.42;0.38;;;;;;;24.08;38.61;101065.13;4951202;28;20077;-84
2023/08/03 06:08:55;;;;;;;0.70;0.40;;;;;;;24.01;38.62;101064.38;4952791;28;20506;-83
2023/08/03 06:11:24;;;;;;;1.00;0.40;;;;;;;23.96;39.27;101067.13;4952681;28;20052;-83
2023/08/03 06:14:00;;;;;;;0.93;0.30;;;;;;;23.92;40.09;101070.72;4955108;28;20129;-83
2023/08/03 06:16:28;;;;;;;3.25;0.40;;;;;;;23.85;40.31;101078.84;4950352;28;20063;-84
2023/08/03 06:18:58;;;;;;;0.68;0.40;;;;;;;23.71;40.01;101071.13;4951391;28;20132;-83
2023/08/03 06:21:30;;;;;;;0.77;0.40;;;;;;;23.66;40.67;101078.28;4952849;28;20106;-83
2023/08/03 06:23:59;;;;;;;0.80;0.60;;;;;;;23.60;40.90;101080.13;4950216;28;20055;-84
2023/08/03 06:26:31;;;;;;;1.00;0.50;;;;;;;23.45;42.22;101072.50;4952273;28;20051;-82
2023/08/03 06:29:01;;;;;;;0.77;0.30;;;;;;;23.35;41.50;101079.72;4950689;28;20063;-82
2023/08/03 06:31:34;;;;;;;0.35;0.30;;;;;;;23.28;41.65;101082.50;4950725;28;20043;-84
2023/08/03 06:34:03;;;;;;;2.17;0.65;;;;;;;23.22;41.61;101078.19;4945370;28;20043;-82
2023/08/03 06:36:37;;;;;;;0.60;0.50;;;;;;;23.18;41.63;101080.03;4949489;28;20039;-82
2023/08/03 06:39:06;;;;;;;1.33;0.57;;;;;;;23.17;43.35;101075.63;4951172;28;20062;-83
2023/08/03 06:41:35;;;;;;;1.30;0.40;;;;;;;23.17;42.28;101080.91;4950534;28;20055;-82
2023/08/03 06:44:03;;;;;;;0.88;0.40;;;;;;;23.10;43.57;101089.84;4951222;28;20043;-80
2023/08/03 06:46:32;;;;;;;2.10;0.40;;;;;;;23.00;43.12;101089.13;4949376;28;20162;-81
2023/08/03 06:49:07;;;;;;;0.47;0.30;;;;;;;22.95;43.40;101096.22;4948536;28;20043;-81
2023/08/03 06:51:38;;;;;;;0.40;0.30;;;;;;;22.89;43.29;101096.31;4949670;28;20109;-82
2023/08/03 06:54:07;;;;;;;0.55;0.40;;;;;;;22.85;43.30;101099.03;4950091;28;20146;-81
2023/08/03 06:56:37;;;;;;;0.55;0.47;;;;;;;22.79;43.55;101100.88;4954220;28;20051;-82
2023/08/03 06:59:08;;;;;;;2.33;0.63;;;;;;;22.72;44.34;101107.16;4954570;28;20079;-81
2023/08/03 07:01:37;;;;;;;1.75;0.47;;;;;;;22.66;44.32;101107.25;4951717;28;20055;-81
2023/08/03 07:04:06;;;;;;;0.63;0.35;;;;;;;22.58;44.61;101104.69;4952383;28;20140;-81
2023/08/03 07:06:36;;;;;;;1.38;0.40;;;;;;;22.55;44.37;101106.53;4953320;28;20115;-82
2023/08/03 07:09:05;;;;;;;0.82;0.38;;;;;;;22.47;45.90;101109.28;4955764;28;20147;-82
2023/08/03 07:11:33;;;;;;;1.25;0.45;;;;;;;22.37;46.18;101105.88;4957462;28;20050;-80
2023/08/03 07:14:02;;;;;;;0.75;0.40;;;;;;;22.31;45.81;101108.63;4954232;28;20039;-79
2023/08/03 07:16:31;;;;;;;0.50;0.30;;;;;;;22.36;46.10;101111.19;4948607;28;20062;-81
2023/08/03 07:19:01;;;;;;;0.80;0.50;;;;;;;22.35;45.54;101110.28;4937769;28;20070;-80
2023/08/03 07:21:29;;;;;;;1.33;0.40;;;;;;;22.34;45.55;101111.19;4955084;28;20158;-79
2023/08/03 07:23:59;;;;;;;1.13;0.40;;;;;;;22.30;45.86;101111.25;4955881;28;20043;-80
2023/08/03 07:26:28;;;;;;;0.38;0.30;;;;;;;22.22;46.09;101108.72;4948976;28;20539;-82
2023/08/03 07:28:57;;;;;;;0.95;0.38;;;;;;;22.17;46.57;101113.13;4952447;28;20054;-80
2023/08/03 07:31:27;;;;;;;0.80;0.47;;;;;;;22.11;46.21;101113.22;4952805;28;20689;-79
2023/08/03 07:33:58;;;;;;;0.68;0.40;;;;;;;22.07;45.91;101115.03;4953322;28;20066;-79
2023/08/03 07:36:26;;;;;;;0.60;0.30;;;;;;;22.03;46.62;101112.44;4953619;28;20425;-81
2023/08/03 07:38:55;;;;;;;0.45;0.35;;;;;;;21.99;46.38;101111.63;4949465;28;20059;-81
2023/08/03 07:41:25;;;;;;;0.40;0.35;;;;;;;21.99;46.57;101116.91;4953033;28;20051;-81
2023/08/03 07:43:53;;;;;;;1.52;0.50;;;;;;;21.94;47.42;101113.41;4953311;28;20054;-82
2023/08/03 07:46:24;;;;;;;0.60;0.47;;;;;;;21.89;46.74;101107.34;4949373;28;20073;-81
2023/08/03 07:48:53;;;;;;;0.80;0.40;;;;;;;21.88;46.43;101114.38;4953607;28;20134;-82
2023/08/03 07:51:22;;;;;;;0.50;0.40;;;;;;;21.87;46.74;101117.88;4953805;28;20078;-81
2023/08/03 07:53:52;;;;;;;1.27;0.40;;;;;;;21.84;46.74;101111.81;4952341;28;20054;-81
2023/08/03 07:56:21;;;;;;;1.38;0.40;;;;;;;21.79;47.51;101118.88;4956981;28;20071;-80
2023/08/03 07:58:53;;;;;;;1.58;0.63;;;;;;;21.71;49.01;101122.44;4953671;28;20043;-80
2023/08/03 08:01:22;;;;;;;0.98;0.60;;;;;;;21.62;49.69;101129.59;4953193;28;20054;-81
2023/08/03 08:03:51;;;;;;;1.67;0.60;;;;;;;21.59;49.80;101125.22;4954732;28;20046;-81
2023/08/03 08:06:20;;;;;;;0.82;0.60;;;;;;;21.60;49.56;101126.09;4952579;28;20062;-80
2023/08/03 08:08:51;;;;;;;1.30;0.70;;;;;;;21.55;49.56;101131.41;4952692;28;20081;-80
2023/08/03 08:11:20;;;;;;;7.13;1.10;;;;;;;21.46;50.21;101126.22;4952324;28;20051;-81
2023/08/03 08:13:49;;;;;;;3.88;0.70;;;;;;;21.38;49.74;101123.66;4953788;28;20061;-81
2023/08/03 08:16:20;;;;;;;1.27;0.60;;;;;;;21.29;49.70;101129.00;4955632;28;20058;-81
2023/08/03 08:18:49;;;;;;;3.13;0.70;;;;;;;21.18;50.32;101130.84;4952082;28;20129;-82
2023/08/03 08:21:17;;;;;;;2.15;0.80;;;;;;;21.04;51.08;101129.19;4952123;28;20285;-80
2023/08/03 08:23:46;;;;;;;2.90;0.70;;;;;;;20.92;51.49;101139.81;4953260;28;20069;-81
2023/08/03 08:26:16;;;;;;;1.42;0.75;;;;;;;20.81;51.94;101137.25;4954970;28;20047;-83
2023/08/03 08:28:48;;;;;;;1.02;0.68;;;;;;;20.75;52.05;101141.66;4956823;28;20118;-81
2023/08/03 08:31:18;;;;;;;1.10;0.80;;;;;;;20.65;53.17;101143.50;4952913;28;20449;-80
2023/08/03 08:33:47;;;;;;;7.35;1.23;;;;;;;20.51;53.24;101144.41;4952241;28;20141;-81
2023/08/03 08:36:15;;;;;;;2.00;1.20;;;;;;;20.45;53.45;101154.06;4952598;28;20126;-79
2023/08/03 08:38:43;;;;;;;1.10;0.80;;;;;;;20.34;54.73;101155.88;4951352;28;20047;-82
2023/08/03 08:41:14;;;;;;;2.70;0.80;;;;;;;20.24;55.00;101160.31;4953141;28;20691;-81
2023/08/03 08:43:43;;;;;;;3.92;0.80;;;;;;;20.20;54.94;101153.31;4951069;28;20068;-80
2023/08/03 08:46:11;;;;;;;1.83;0.77;;;;;;;20.19;54.76;101149.81;4951976;28;20063;-80
2023/08/03 08:48:42;;;;;;;4.45;0.80;;;;;;;20.18;55.18;101153.34;4952337;28;20050;-82
2023/08/03 08:51:12;;;;;;;0.63;0.52;;;;;;;20.18;54.83;101153.34;4952898;28;20055;-82
2023/08/03 08:53:41;;;;;;;1.25;0.85;;;;;;;20.16;55.44;101152.47;4952352;28;20571;-80
2023/08/03 08:56:09;;;;;;;1.02;0.70;;;;;;;20.14;55.18;101155.97;4952466;28;20050;-81
2023/08/03 08:58:38;;;;;;;2.03;0.73;;;;;;;20.08;55.55;101149.84;4954116;28;20051;-82
2023/08/03 09:01:07;;;;;;;1.23;0.63;;;;;;;20.04;55.92;101152.47;4957398;28;20062;-81
2023/08/03 09:03:51;;;;;;;1.27;0.60;;;;;;;19.97;56.42;101146.38;4952207;28;20565;-79
2023/08/03 09:06:21;;;;;;;0.98;0.70;;;;;;;19.92;56.30;101148.16;4951624;28;20061;-79
2023/08/03 09:08:53;;;;;;;1.10;0.60;;;;;;;19.87;56.32;101148.16;4950429;28;20173;-80
2023/08/03 09:11:38;;;;;;;1.33;0.68;;;;;;;19.80;56.99;101156.06;4950570;28;20047;-79
2023/08/03 09:14:08;;;;;;;2.08;0.57;;;;;;;19.67;58.94;101152.53;4951440;28;20047;-80
2023/08/03 09:16:37;;;;;;;1.85;0.70;;;;;;;19.50;60.01;101157.81;4949274;28;20090;-80
2023/08/03 09:19:07;;;;;;;2.33;0.60;;;;;;;19.38;60.95;101155.22;4948281;28;20077;-80
2023/08/03 09:21:36;;;;;;;0.70;0.60;;;;;;;19.29;60.37;101166.59;4951323;28;20493;-80
2023/08/03 09:24:18;;;;;;;1.75;0.70;;;;;;;19.29;59.85;101160.44;4951150;28;20051;-79
2023/08/03 09:26:46;;;;;;;;;;;;;;;19.30;60.40;101160.44;4951072;28;20069;-80
2023/08/03 09:29:15;;;;;;;1.83;0.90;;;;;;;19.29;60.26;101145.59;4950326;28;20392;-80
2023/08/03 09:31:44;;;;;;;1.85;0.70;;;;;;;19.27;60.32;101165.72;4949794;28;20050;-80
2023/08/03 09:34:14;;;;;;;1.00;0.63;;;;;;;19.21;60.59;101157.81;4949165;28;20047;-80
2023/08/03 09:36:49;;;;;;;1.15;0.60;;;;;;;19.14;61.16;101159.56;4951608;28;20422;-80
2023/08/03 09:39:18;;;;;;;0.85;0.70;;;;;;;19.13;60.85;101164.84;4951720;28;20134;-80
2023/08/03 09:41:49;;;;;;;0.77;0.70;;;;;;;19.11;60.48;101167.44;4951130;28;20058;-80
2023/08/03 09:44:18;;;;;;;1.45;0.85;;;;;;;19.12;60.46;101168.31;4952020;28;20089;-80
2023/08/03 09:46:50;;;;;;;3.88;0.70;;;;;;;19.07;62.37;101170.94;4950088;28;20501;-80
2023/08/03 09:49:20;;;;;;;3.47;0.70;;;;;;;18.98;63.55;101177.03;4947893;28;20055;-80
2023/08/03 09:51:52;;;;;;;1.58;0.75;;;;;;;18.85;63.23;101177.88;4952464;28;20054;-82
2023/08/03 09:54:27;;;;;;;1.40;0.60;;;;;;;18.81;63.54;101179.63;4953517;28;20051;-79
2023/08/03 09:56:59;;;;;;;1.38;0.90;;;;;;;18.80;63.25;101187.47;4952392;28;20055;-81
2023/08/03 09:59:33;;;;;;;2.10;0.70;;;;;;;18.80;63.32;101182.25;4950964;28;20111;-82
2023/08/03 10:02:03;;;;;;;2.40;0.77;;;;;;;18.78;63.16;101183.97;4951064;28;20051;-81
2023/08/03 10:04:35;;;;;;;0.88;0.52;;;;;;;18.77;63.34;101187.50;4952479;28;20065;-80
2023/08/03 10:07:04;;;;;;;;;;;;;;;18.75;63.39;101184.81;4947860;28;20062;-79
2023/08/03 10:09:39;;;;;;;2.25;0.60;;;;;;;18.72;63.87;101183.94;4951448;28;19922;-80
2023/08/03 10:12:14;;;;;;;0.65;0.55;;;;;;;18.70;64.35;101188.31;4951613;28;20063;-80
2023/08/03 10:14:44;;;;;;;1.20;0.77;;;;;;;18.66;64.21;101186.53;4950388;28;20055;-81
2023/08/03 10:17:13;;;;;;;1.08;0.70;;;;;;;18.61;64.34;101195.25;4950504;28;20051;-81
2023/08/03 10:19:44;;;;;;;1.30;0.60;;;;;;;18.57;64.21;101201.34;4949584;28;20047;-81
2023/08/03 10:22:13;;;;;;;4.72;0.93;;;;;;;18.51;64.02;101198.72;4945748;28;20051;-79
2023/08/03 10:24:42;;;;;;;2.53;0.90;;;;;;;18.47;64.78;101194.34;4949328;28;20047;-81
2023/08/03 10:27:18;;;;;;;3.53;0.88;;;;;;;18.44;65.34;101189.09;4948795;28;20070;-80
2023/08/03 10:29:58;;;;;;;1.45;0.80;;;;;;;18.41;65.59;101189.94;4948027;28;20051;-80
2023/08/03 10:32:28;;;;;;;4.20;0.93;;;;;;;18.31;67.00;101193.41;4949921;28;20051;-80
2023/08/03 10:35:35;;;;;;;1.40;0.73;;;;;;;18.25;67.83;101202.97;4949286;28;20179;-80
2023/08/03 10:38:04;;;;;;;3.08;0.88;;;;;;;18.19;69.11;101198.59;4937511;28;20051;-80
2023/08/03 10:40:33;;;;;;;3.95;0.80;;;;;;;18.08;68.34;101195.91;4950056;28;20043;-81
2023/08/03 10:43:10;;;;;;;1.02;0.70;;;;;;;18.03;68.12;101201.97;4950794;28;20055;-80
2023/08/03 10:45:40;;;;;;;1.73;0.88;;;;;;;17.96;69.57;101190.59;4953379;28;20762;-81
2023/08/03 10:48:31;;;;;;;3.10;0.70;;;;;;;17.93;69.56;101196.66;4952270;28;20058;-81
2023/08/03 10:51:04;;;;;;;1.35;0.80;;;;;;;17.92;67.81;101189.69;4951382;28;20059;-81
2023/08/03 10:53:33;;;;;;;1.50;0.70;;;;;;;17.92;68.45;101192.31;4951307;28;20145;-80
2023/08/03 10:56:10;;;;;;;0.65;0.50;;;;;;;17.88;68.20;101189.66;4951617;28;20055;-79
2023/08/03 10:58:47;;;;;;;3.50;0.68;;;;;;;17.85;68.59;101181.81;4950734;28;20043;-80
2023/08/03 11:01:16;;;;;;;0.90;0.50;;;;;;;17.75;70.21;101192.19;4950506;28;20047;-79
2023/08/03 11:03:45;;;;;;;2.13;0.63;;;;;;;17.70;69.56;101191.25;4952119;28;20051;-78
2023/08/03 11:06:15;;;;;;;3.38;0.50;;;;;;;17.67;70.28;101183.38;4949208;28;20142;-79
2023/08/03 11:08:45;;;;;;;1.58;0.77;;;;;;;17.64;69.83;101186.00;4951250;28;20059;-80
2023/08/03 11:11:22;;;;;;;1.48;0.47;;;;;;;17.58;70.22;101183.31;4949902;28;20050;-79
2023/08/03 11:13:52;;;;;;;1.45;0.98;;;;;;;17.58;69.91;101185.94;4950238;28;20134;-81
2023/08/03 11:16:23;;;;;;;1.42;0.60;;;;;;;17.60;69.97;101186.81;4950950;28;20055;-79
2023/08/03 11:18:54;;;;;;;2.75;0.77;;;;;;;17.61;70.10;101179.84;4948149;28;20082;-79
2023/08/03 11:21:24;;;;;;;0.38;0.35;;;;;;;17.60;68.40;101176.34;4951576;28;20652;-82
2023/08/03 11:23:53;;;;;;;0.73;0.45;;;;;;;17.61;68.77;101182.47;4952056;28;20070;-80
2023/08/03 11:26:23;;;;;;;2.17;0.60;;;;;;;17.61;69.32;101190.31;4946594;28;20127;-81
2023/08/03 11:28:52;;;;;;;2.10;0.63;;;;;;;17.54;70.15;101192.00;4949727;28;20291;-79
2023/08/03 11:31:22;;;;;;;0.50;0.45;;;;;;;17.48;72.06;101192.84;4948127;28;20051;-80
2023/08/03 11:33:51;;;;;;;0.80;0.57;;;;;;;17.37;71.58;101200.59;4950398;28;20051;-79
2023/08/03 11:36:20;;;;;;;0.45;0.45;;;;;;;17.26;71.53;101199.63;4949724;28;20051;-80
2023/08/03 11:38:53;;;;;;;1.33;0.40;;;;;;;17.18;70.85;101196.06;4950390;28;20130;-79
2023/08/03 11:41:24;;;;;;;1.75;0.47;;;;;;;17.14;71.41;101207.38;4953618;28;20055;-78